createdAt,value
2018-09-27T00:00:32.706Z,0
2018-09-27T00:01:18.319Z,0
2018-09-27T00:02:18.082Z,0
2018-09-27T00:03:18.374Z,0
2018-09-27T00:04:18.384Z,0
2018-09-27T00:05:18.408Z,0
2018-09-27T00:06:33.088Z,0
2018-09-27T00:07:17.940Z,0
2018-09-27T00:08:18.474Z,0
2018-09-27T00:10:18.258Z,0
2018-09-27T00:11:18.278Z,0
2018-09-27T00:12:18.561Z,0
2018-09-27T00:13:18.586Z,0
2018-09-27T00:15:18.363Z,0
2018-09-27T00:16:17.868Z,0
2018-09-27T00:17:33.324Z,0
2018-09-27T00:18:18.430Z,0
2018-09-27T00:19:18.713Z,0
2018-09-27T00:20:18.476Z,0
2018-09-27T00:21:33.413Z,0
2018-09-27T00:22:18.516Z,0
2018-09-27T00:23:18.539Z,0
2018-09-27T00:24:33.222Z,0
2018-09-27T00:25:33.242Z,0
2018-09-27T00:26:18.857Z,0
2018-09-27T00:27:18.639Z,0
2018-09-27T00:28:33.574Z,0
2018-09-27T00:29:33.586Z,0
2018-09-27T00:30:18.686Z,0
2018-09-27T00:31:18.973Z,0
2018-09-27T00:32:18.995Z,0
2018-09-27T00:33:19.013Z,0
2018-09-27T00:34:18.778Z,0
2018-09-27T00:35:19.054Z,0
2018-09-27T00:36:19.074Z,0
2018-09-27T00:37:19.095Z,0
2018-09-27T00:38:18.864Z,0
2018-09-27T00:39:33.801Z,0
2018-09-27T00:40:19.165Z,0
2018-09-27T00:41:18.667Z,0
2018-09-27T00:43:19.227Z,0
2018-09-27T00:44:18.994Z,0
2018-09-27T00:45:19.268Z,0
2018-09-27T00:46:19.043Z,0
2018-09-27T00:47:19.309Z,0
2018-09-27T00:49:19.101Z,0
2018-09-27T00:50:19.375Z,0
2018-09-27T00:51:19.523Z,0
2018-09-27T00:52:19.161Z,0
2018-09-27T00:53:34.099Z,0
2018-09-27T00:54:19.265Z,0
2018-09-27T00:55:19.224Z,0
2018-09-27T00:56:33.909Z,0
2018-09-27T00:57:19.530Z,0
2018-09-27T00:58:19.557Z,0
2018-09-27T00:59:19.627Z,0
2018-09-27T01:00:19.585Z,0
2018-09-27T01:01:19.609Z,0
2018-09-27T01:02:19.680Z,0
2018-09-27T01:03:19.657Z,0
2018-09-27T01:04:19.691Z,0
2018-09-27T01:05:19.441Z,0
2018-09-27T01:06:19.461Z,0
2018-09-27T01:07:19.739Z,0
2018-09-27T01:08:34.171Z,0
2018-09-27T01:09:34.453Z,0
2018-09-27T01:10:19.808Z,0
2018-09-27T01:11:34.488Z,0
2018-09-27T01:12:19.845Z,0
2018-09-27T01:13:19.874Z,0
2018-09-27T01:14:19.891Z,0
2018-09-27T01:15:19.922Z,0
2018-09-27T01:16:20.037Z,0
2018-09-27T01:17:19.962Z,0
2018-09-27T01:18:19.975Z,0
2018-09-27T01:19:20.004Z,0
2018-09-27T01:20:20.028Z,0
2018-09-27T01:21:20.042Z,0
2018-09-27T01:22:20.065Z,0
2018-09-27T01:23:20.084Z,0
2018-09-27T01:24:19.848Z,0
2018-09-27T01:25:34.534Z,0
2018-09-27T01:26:20.152Z,0
2018-09-27T01:27:19.656Z,0
2018-09-27T01:28:20.202Z,0
2018-09-27T01:29:20.224Z,0
2018-09-27T01:30:34.640Z,0
2018-09-27T01:31:20.262Z,0
2018-09-27T01:32:20.031Z,0
2018-09-27T01:33:20.042Z,0
2018-09-27T01:34:20.066Z,0
2018-09-27T01:35:20.348Z,0
2018-09-27T01:36:20.111Z,0
2018-09-27T01:37:20.388Z,0
2018-09-27T01:38:20.152Z,0
2018-09-27T01:39:20.429Z,0
2018-09-27T01:40:20.199Z,0
2018-09-27T01:41:35.135Z,0
2018-09-27T01:42:20.500Z,0
2018-09-27T01:43:20.516Z,0
2018-09-27T01:44:20.543Z,0
2018-09-27T01:45:20.560Z,0
2018-09-27T01:46:20.583Z,0
2018-09-27T01:47:20.714Z,0
2018-09-27T01:48:20.370Z,0
2018-09-27T01:49:20.389Z,0
2018-09-27T01:50:20.430Z,0
2018-09-27T01:51:20.702Z,0
2018-09-27T01:52:20.725Z,0
2018-09-27T01:53:20.734Z,0
2018-09-27T01:54:20.810Z,0
2018-09-27T01:56:35.464Z,0
2018-09-27T01:57:20.822Z,0
2018-09-27T01:58:20.842Z,0
2018-09-27T01:59:35.524Z,0
2018-09-27T02:00:20.630Z,0
2018-09-27T02:01:20.648Z,0
2018-09-27T02:02:20.928Z,0
2018-09-27T02:03:20.949Z,0
2018-09-27T02:04:20.983Z,0
2018-09-27T02:05:35.656Z,0
2018-09-27T02:06:21.027Z,0
2018-09-27T02:07:21.034Z,0
2018-09-27T02:08:20.802Z,0
2018-09-27T02:09:21.080Z,0
2018-09-27T02:10:21.100Z,0
2018-09-27T02:11:21.133Z,0
2018-09-27T02:12:21.153Z,0
2018-09-27T02:13:21.223Z,0
2018-09-27T02:14:20.928Z,0
2018-09-27T02:15:21.213Z,0
2018-09-27T02:16:21.241Z,0
2018-09-27T02:17:21.252Z,0
2018-09-27T02:18:35.945Z,0
2018-09-27T02:19:35.960Z,0
2018-09-27T02:21:21.339Z,0
2018-09-27T02:23:21.126Z,0
2018-09-27T02:24:21.259Z,0
2018-09-27T02:25:21.169Z,0
2018-09-27T02:26:21.448Z,0
2018-09-27T02:28:36.151Z,0
2018-09-27T02:29:21.300Z,0
2018-09-27T02:30:21.565Z,0
2018-09-27T02:31:21.556Z,0
2018-09-27T02:33:21.340Z,0
2018-09-27T02:34:21.628Z,0
2018-09-27T02:35:21.390Z,0
2018-09-27T02:37:21.688Z,0
2018-09-27T02:39:21.735Z,0
2018-09-27T02:40:21.758Z,0
2018-09-27T02:41:36.436Z,0
2018-09-27T02:42:21.796Z,0
2018-09-27T02:43:21.823Z,0
2018-09-27T02:44:36.525Z,0
2018-09-27T02:45:21.862Z,0
2018-09-27T02:47:21.645Z,0
2018-09-27T02:48:21.434Z,0
2018-09-27T02:49:21.938Z,0
2018-09-27T02:50:36.632Z,0
2018-09-27T02:52:22.010Z,0
2018-09-27T02:54:22.071Z,0
2018-09-27T02:55:22.077Z,0
2018-09-27T02:56:22.091Z,0
2018-09-27T02:57:22.119Z,0
2018-09-27T02:58:22.147Z,0
2018-09-27T03:01:22.204Z,0
2018-09-27T03:02:21.960Z,0
2018-09-27T03:03:22.254Z,0
2018-09-27T03:05:22.286Z,0
2018-09-27T03:06:22.057Z,0
2018-09-27T03:07:22.327Z,0
2018-09-27T03:08:22.378Z,0
2018-09-27T03:09:22.113Z,0
2018-09-27T03:10:36.537Z,0
2018-09-27T03:11:22.433Z,0
2018-09-27T03:12:22.431Z,0
2018-09-27T03:13:37.129Z,0
2018-09-27T03:14:22.494Z,0
2018-09-27T03:15:22.241Z,0
2018-09-27T03:16:36.924Z,0
2018-09-27T03:17:22.543Z,0
2018-09-27T03:20:22.610Z,0
2018-09-27T03:21:22.666Z,0
2018-09-27T03:22:22.662Z,0
2018-09-27T03:23:22.675Z,0
2018-09-27T03:25:22.722Z,0
2018-09-27T03:26:22.749Z,0
2018-09-27T03:27:22.856Z,0
2018-09-27T03:28:22.780Z,0
2018-09-27T03:29:22.800Z,0
2018-09-27T03:30:22.831Z,0
2018-09-27T03:31:37.505Z,0
2018-09-27T03:33:22.890Z,0
2018-09-27T03:34:22.911Z,0
2018-09-27T03:35:23.124Z,0
2018-09-27T03:36:37.616Z,0
2018-09-27T03:37:22.976Z,0
2018-09-27T03:38:23.006Z,0
2018-09-27T03:39:22.763Z,0
2018-09-27T03:40:23.562Z,0
2018-09-27T03:41:23.088Z,0
2018-09-27T03:42:23.088Z,0
2018-09-27T03:43:23.102Z,0
2018-09-27T03:44:22.880Z,0
2018-09-27T03:45:23.145Z,0
2018-09-27T03:47:22.933Z,0
2018-09-27T03:48:23.219Z,0
2018-09-27T03:49:22.973Z,0
2018-09-27T03:50:23.251Z,0
2018-09-27T03:51:23.277Z,0
2018-09-27T03:52:23.081Z,0
2018-09-27T03:53:23.318Z,0
2018-09-27T03:54:23.081Z,0
2018-09-27T03:56:23.122Z,0
2018-09-27T03:57:23.146Z,0
2018-09-27T03:58:23.169Z,0
2018-09-27T03:59:38.111Z,0
2018-09-27T04:00:23.208Z,0
2018-09-27T04:01:38.151Z,0
2018-09-27T04:02:22.988Z,0
2018-09-27T04:03:38.208Z,0
2018-09-27T04:04:37.956Z,0
2018-09-27T04:05:23.264Z,0
2018-09-27T04:06:23.346Z,0
2018-09-27T04:07:23.624Z,0
2018-09-27T04:08:23.665Z,0
2018-09-27T04:09:23.402Z,0
2018-09-27T04:10:23.423Z,0
2018-09-27T04:11:23.456Z,0
2018-09-27T04:12:23.470Z,0
2018-09-27T04:13:23.744Z,0
2018-09-27T04:14:23.505Z,0
2018-09-27T04:15:23.271Z,0
2018-09-27T04:16:23.814Z,0
2018-09-27T04:17:23.838Z,0
2018-09-27T04:18:23.591Z,0
2018-09-27T04:19:38.534Z,0
2018-09-27T04:20:23.645Z,0
2018-09-27T04:21:23.669Z,0
2018-09-27T04:22:38.598Z,0
2018-09-27T04:23:38.362Z,0
2018-09-27T04:24:23.732Z,0
2018-09-27T04:25:24.047Z,0
2018-09-27T04:26:23.509Z,0
2018-09-27T04:27:24.046Z,0
2018-09-27T04:28:38.732Z,0
2018-09-27T04:29:38.499Z,0
2018-09-27T04:30:24.108Z,0
2018-09-27T04:31:24.142Z,0
2018-09-27T04:32:24.159Z,0
2018-09-27T04:33:24.177Z,0
2018-09-27T04:34:23.943Z,4
2018-09-27T04:35:38.878Z,4
2018-09-27T04:36:23.978Z,4
2018-09-27T04:37:24.259Z,4
2018-09-27T04:38:24.024Z,4
2018-09-27T04:39:38.734Z,4
2018-09-27T04:40:24.331Z,4
2018-09-27T04:43:24.130Z,8
2018-09-27T04:44:24.411Z,8
2018-09-27T04:45:24.434Z,12
2018-09-27T04:46:38.932Z,12
2018-09-27T04:47:24.482Z,16
2018-09-27T04:48:24.509Z,16
2018-09-27T04:49:24.262Z,20
2018-09-27T04:50:24.541Z,20
2018-09-27T04:51:39.347Z,28
2018-09-27T04:52:24.329Z,32
2018-09-27T04:54:24.797Z,40
2018-09-27T04:55:24.649Z,44
2018-09-27T04:56:39.335Z,44
2018-09-27T04:57:24.690Z,48
2018-09-27T04:58:24.720Z,52
2018-09-27T04:59:24.746Z,56
2018-09-27T05:00:24.761Z,68
2018-09-27T05:01:24.779Z,76
2018-09-27T05:02:24.802Z,80
2018-09-27T05:03:24.823Z,88
2018-09-27T05:04:24.855Z,92
2018-09-27T05:05:24.877Z,100
2018-09-27T05:06:39.290Z,108
2018-09-27T05:07:24.655Z,112
2018-09-27T05:08:24.942Z,112
2018-09-27T05:09:24.971Z,120
2018-09-27T05:10:24.981Z,128
2018-09-27T05:11:24.998Z,144
2018-09-27T05:12:24.760Z,156
2018-09-27T05:13:24.784Z,172
2018-09-27T05:14:25.060Z,192
2018-09-27T05:15:24.918Z,216
2018-09-27T05:16:39.505Z,224
2018-09-27T05:17:25.129Z,228
2018-09-27T05:18:24.904Z,228
2018-09-27T05:19:39.835Z,232
2018-09-27T05:20:25.310Z,240
2018-09-27T05:21:25.016Z,260
2018-09-27T05:22:24.973Z,288
2018-09-27T05:23:24.742Z,340
2018-09-27T05:24:25.018Z,376
2018-09-27T05:25:39.968Z,412
2018-09-27T05:26:25.320Z,420
2018-09-27T05:27:26.050Z,440
2018-09-27T05:28:25.364Z,464
2018-09-27T05:29:25.387Z,500
2018-09-27T05:30:25.410Z,500
2018-09-27T05:31:40.093Z,520
2018-09-27T05:32:40.115Z,516
2018-09-27T05:33:25.490Z,528
2018-09-27T05:34:25.496Z,628
2018-09-27T05:35:25.525Z,620
2018-09-27T05:36:40.202Z,632
2018-09-27T05:37:25.307Z,644
2018-09-27T05:38:40.241Z,684
2018-09-27T05:39:25.707Z,720
2018-09-27T05:40:25.371Z,736
2018-09-27T05:41:25.391Z,784
2018-09-27T05:42:25.675Z,796
2018-09-27T05:43:25.691Z,836
2018-09-27T05:44:25.463Z,840
2018-09-27T05:45:40.555Z,872
2018-09-27T05:46:25.763Z,880
2018-09-27T05:47:25.782Z,904
2018-09-27T05:48:25.804Z,920
2018-09-27T05:49:40.483Z,960
2018-09-27T05:50:25.583Z,992
2018-09-27T05:51:25.944Z,1052
2018-09-27T05:52:25.631Z,1100
2018-09-27T05:53:25.906Z,1248
2018-09-27T05:54:40.332Z,1260
2018-09-27T05:55:25.963Z,1216
2018-09-27T05:56:30.677Z,1192
2018-09-27T05:57:25.837Z,1280
2018-09-27T05:59:26.043Z,1252
2018-09-27T06:00:26.059Z,1224
2018-09-27T06:01:40.746Z,1260
2018-09-27T06:02:25.601Z,1320
2018-09-27T06:03:25.879Z,1396
2018-09-27T06:04:26.157Z,1476
2018-09-27T06:05:26.179Z,1460
2018-09-27T06:06:25.934Z,1500
2018-09-27T06:07:25.958Z,1512
2018-09-27T06:08:40.910Z,1580
2018-09-27T06:09:26.378Z,1720
2018-09-27T06:10:40.682Z,2220
2018-09-27T06:11:26.415Z,2352
2018-09-27T06:12:26.334Z,2288
2018-09-27T06:13:26.354Z,2076
2018-09-27T06:14:26.389Z,1940
2018-09-27T06:15:26.190Z,2040
2018-09-27T06:16:26.410Z,2040
2018-09-27T06:17:26.433Z,1924
2018-09-27T06:18:26.459Z,1768
2018-09-27T06:19:41.419Z,1812
2018-09-27T06:20:26.504Z,1960
2018-09-27T06:21:26.597Z,2448
2018-09-27T06:22:26.023Z,2848
2018-09-27T06:23:40.971Z,2996
2018-09-27T06:24:26.591Z,2912
2018-09-27T06:25:26.359Z,2732
2018-09-27T06:26:41.290Z,2584
2018-09-27T06:27:26.760Z,2732
2018-09-27T06:28:41.077Z,3188
2018-09-27T06:29:26.435Z,3732
2018-09-27T06:31:26.743Z,3964
2018-09-27T06:32:26.502Z,3860
2018-09-27T06:33:26.919Z,3748
2018-09-27T06:34:26.546Z,3612
2018-09-27T06:35:26.568Z,3604
2018-09-27T06:36:26.602Z,3464
2018-09-27T06:38:26.705Z,3156
2018-09-27T06:39:41.581Z,3276
2018-09-27T06:40:26.938Z,3220
2018-09-27T06:41:41.636Z,2904
2018-09-27T06:42:26.982Z,2728
2018-09-27T06:43:27.001Z,2680
2018-09-27T06:44:27.154Z,2856
2018-09-27T06:45:27.052Z,2920
2018-09-27T06:46:26.813Z,2924
2018-09-27T06:47:27.093Z,3152
2018-09-27T06:48:27.211Z,3148
2018-09-27T06:49:27.134Z,2944
2018-09-27T06:50:27.286Z,2808
2018-09-27T06:51:26.932Z,2764
2018-09-27T06:52:27.209Z,2812
2018-09-27T06:53:27.236Z,2924
2018-09-27T06:54:27.245Z,2908
2018-09-27T06:55:27.276Z,2984
2018-09-27T06:56:27.416Z,3004
2018-09-27T06:57:27.316Z,3084
2018-09-27T06:58:27.342Z,3072
2018-09-27T06:59:27.148Z,2920
2018-09-27T07:00:27.392Z,2776
2018-09-27T07:01:27.408Z,2752
2018-09-27T07:02:27.488Z,2676
2018-09-27T07:03:27.450Z,2652
2018-09-27T07:04:27.471Z,2728
2018-09-27T07:05:26.983Z,2896
2018-09-27T07:06:27.258Z,2820
2018-09-27T07:07:27.934Z,2944
2018-09-27T07:08:27.663Z,2836
2018-09-27T07:09:27.594Z,2696
2018-09-27T07:11:27.369Z,2944
2018-09-27T07:12:28.343Z,2972
2018-09-27T07:13:42.075Z,3164
2018-09-27T07:14:27.547Z,3216
2018-09-27T07:15:27.793Z,3296
2018-09-27T07:16:42.409Z,3216
2018-09-27T07:17:27.504Z,3224
2018-09-27T07:18:27.786Z,3268
2018-09-27T07:19:27.805Z,3308
2018-09-27T07:20:27.812Z,3324
2018-09-27T07:21:27.856Z,3296
2018-09-27T07:22:42.535Z,3292
2018-09-27T07:24:27.925Z,3560
2018-09-27T07:25:27.944Z,3868
2018-09-27T07:26:27.499Z,3748
2018-09-27T07:27:28.000Z,3724
2018-09-27T07:28:28.007Z,3624
2018-09-27T07:29:42.696Z,3868
2018-09-27T07:30:42.458Z,4156
2018-09-27T07:31:28.083Z,4396
2018-09-27T07:32:42.877Z,4336
2018-09-27T07:33:27.904Z,4200
2018-09-27T07:34:42.810Z,4180
2018-09-27T07:35:28.167Z,4312
2018-09-27T07:36:27.989Z,4604
2018-09-27T07:37:28.216Z,4704
2018-09-27T07:38:28.343Z,4932
2018-09-27T07:39:28.258Z,4928
2018-09-27T07:40:28.282Z,4960
2018-09-27T07:41:28.300Z,5780
2018-09-27T07:42:28.082Z,5792
2018-09-27T07:43:28.344Z,5776
2018-09-27T07:44:28.568Z,6048
2018-09-27T07:45:42.796Z,6460
2018-09-27T07:46:43.072Z,7028
2018-09-27T07:47:28.445Z,6592
2018-09-27T07:48:43.343Z,6748
2018-09-27T07:49:28.227Z,7244
2018-09-27T07:51:28.524Z,7972
2018-09-27T07:52:28.557Z,7764
2018-09-27T07:53:28.572Z,8720
2018-09-27T07:54:29.095Z,8064
2018-09-27T07:55:43.285Z,8344
2018-09-27T07:56:28.413Z,8744
2018-09-27T07:57:28.409Z,8504
2018-09-27T07:58:28.430Z,8848
2018-09-27T07:59:28.709Z,8356
2018-09-27T08:00:28.736Z,7548
2018-09-27T08:01:43.424Z,7808
2018-09-27T08:02:28.871Z,8396
2018-09-27T08:04:43.722Z,9520
2018-09-27T08:05:43.250Z,10008
2018-09-27T08:06:28.620Z,10476
2018-09-27T08:07:28.639Z,11260
2018-09-27T08:08:28.501Z,11432
2018-09-27T08:09:28.939Z,15968
2018-09-27T08:10:28.720Z,11964
2018-09-27T08:11:29.473Z,14148
2018-09-27T08:12:29.015Z,16060
2018-09-27T08:13:28.777Z,29472
2018-09-27T08:14:28.563Z,15828
2018-09-27T08:15:43.744Z,21728
2018-09-27T08:16:43.853Z,23968
2018-09-27T08:17:28.738Z,23232
2018-09-27T08:18:29.157Z,21728
2018-09-27T08:20:29.713Z,45792
2018-09-27T08:21:44.063Z,37952
2018-09-27T08:22:29.249Z,42784
2018-09-27T08:23:43.934Z,28672
2018-09-27T08:24:29.296Z,58048
2018-09-27T08:25:29.320Z,27520
2018-09-27T08:26:29.499Z,25728
2018-09-27T08:27:28.853Z,18880
2018-09-27T08:28:29.397Z,22464
2018-09-27T08:29:29.164Z,23072
2018-09-27T08:30:44.325Z,37696
2018-09-27T08:31:29.467Z,28256
2018-09-27T08:32:29.693Z,25760
2018-09-27T08:33:44.180Z,25472
2018-09-27T08:34:44.202Z,29056
2018-09-27T08:35:29.566Z,23776
2018-09-27T08:36:29.074Z,21024
2018-09-27T08:37:29.615Z,24864
2018-09-27T08:39:44.338Z,18400
2018-09-27T08:40:29.693Z,31264
2018-09-27T08:41:29.456Z,42592
2018-09-27T08:42:29.746Z,32352
2018-09-27T08:43:29.515Z,34624
2018-09-27T08:44:30.171Z,31584
2018-09-27T08:45:31.439Z,25760
2018-09-27T08:46:29.848Z,32416
2018-09-27T08:47:29.884Z,30656
2018-09-27T08:48:44.554Z,17408
2018-09-27T08:49:29.674Z,22720
2018-09-27T08:50:29.697Z,29504
2018-09-27T08:51:44.383Z,29664
2018-09-27T08:52:30.013Z,21568
2018-09-27T08:53:44.695Z,27968
2018-09-27T08:54:30.058Z,25344
2018-09-27T08:55:30.419Z,24864
2018-09-27T08:56:30.367Z,26976
2018-09-27T08:57:44.639Z,25952
2018-09-27T08:58:29.894Z,23200
2018-09-27T08:59:29.924Z,15012
2018-09-27T09:00:30.201Z,26048
2018-09-27T09:01:30.359Z,23808
2018-09-27T09:02:30.016Z,25952
2018-09-27T09:03:29.954Z,14736
2018-09-27T09:04:44.969Z,23040
2018-09-27T09:05:30.089Z,25792
2018-09-27T09:06:30.101Z,24512
2018-09-27T09:07:44.944Z,15020
2018-09-27T09:08:29.897Z,25248
2018-09-27T09:09:30.307Z,23232
2018-09-27T09:10:30.467Z,20928
2018-09-27T09:11:30.515Z,13736
2018-09-27T09:12:44.922Z,22048
2018-09-27T09:13:30.669Z,21408
2018-09-27T09:14:30.319Z,22464
2018-09-27T09:15:30.731Z,16368
2018-09-27T09:16:30.107Z,15872
2018-09-27T09:17:30.390Z,18848
2018-09-27T09:18:30.163Z,8996
2018-09-27T09:19:30.946Z,21792
2018-09-27T09:20:45.403Z,20288
2018-09-27T09:21:30.880Z,19776
2018-09-27T09:23:30.805Z,15548
2018-09-27T09:24:31.044Z,16128
2018-09-27T09:25:30.706Z,17196
2018-09-27T09:26:30.634Z,18528
2018-09-27T09:27:30.739Z,11760
2018-09-27T09:28:31.038Z,13108
2018-09-27T09:29:31.333Z,22784
2018-09-27T09:30:45.440Z,15608
2018-09-27T09:31:31.016Z,23168
2018-09-27T09:32:30.795Z,23904
2018-09-27T09:33:31.205Z,12708
2018-09-27T09:34:30.585Z,10220
2018-09-27T09:35:45.922Z,10032
2018-09-27T09:36:45.555Z,16632
2018-09-27T09:37:30.665Z,18336
2018-09-27T09:38:30.686Z,17088
2018-09-27T09:39:30.970Z,13048
2018-09-27T09:40:45.657Z,10748
2018-09-27T09:41:31.026Z,16220
2018-09-27T09:43:45.997Z,15808
2018-09-27T09:44:46.021Z,15772
2018-09-27T09:45:31.394Z,15688
2018-09-27T09:46:31.424Z,15628
2018-09-27T09:47:31.450Z,15552
2018-09-27T09:48:31.466Z,15432
2018-09-27T09:49:31.493Z,15380
2018-09-27T09:50:31.522Z,15248
2018-09-27T09:51:45.948Z,15160
2018-09-27T09:52:31.313Z,15016
2018-09-27T09:53:46.261Z,14956
2018-09-27T09:54:31.630Z,14956
2018-09-27T09:56:31.679Z,14828
2018-09-27T09:57:31.705Z,14728
2018-09-27T09:58:31.473Z,14652
2018-09-27T09:59:31.510Z,14556
2018-09-27T10:00:31.803Z,14428
2018-09-27T10:01:31.562Z,14436
2018-09-27T10:02:32.067Z,14308
2018-09-27T10:03:31.617Z,14292
2018-09-27T10:04:31.891Z,14248
2018-09-27T10:05:31.667Z,14188
2018-09-27T10:06:31.687Z,14104
2018-09-27T10:07:31.466Z,13904
2018-09-27T10:08:31.999Z,13824
2018-09-27T10:09:32.028Z,13992
2018-09-27T10:10:32.067Z,13880
2018-09-27T10:11:31.821Z,13932
2018-09-27T10:13:32.136Z,13600
2018-09-27T10:14:32.165Z,13348
2018-09-27T10:15:32.202Z,13168
2018-09-27T10:16:32.212Z,13552
2018-09-27T10:17:32.292Z,12772
2018-09-27T10:18:46.933Z,13328
2018-09-27T10:19:46.958Z,12844
2018-09-27T10:21:32.418Z,6628
2018-09-27T10:22:32.373Z,12940
2018-09-27T10:23:47.108Z,12696
2018-09-27T10:25:32.457Z,12236
2018-09-27T10:26:32.475Z,12244
2018-09-27T10:27:32.833Z,12304
2018-09-27T10:28:32.529Z,11632
2018-09-27T10:29:32.553Z,11256
2018-09-27T10:30:32.071Z,9616
2018-09-27T10:31:32.733Z,5176
2018-09-27T10:32:32.631Z,9592
2018-09-27T10:33:32.662Z,7324
2018-09-27T10:34:32.901Z,9532
2018-09-27T10:35:32.452Z,9268
2018-09-27T10:36:47.397Z,8836
2018-09-27T10:37:32.758Z,8680
2018-09-27T10:38:33.441Z,8272
2018-09-27T10:39:47.470Z,4608
2018-09-27T10:40:32.844Z,4644
2018-09-27T10:41:32.599Z,7668
2018-09-27T10:42:32.630Z,7548
2018-09-27T10:43:47.056Z,7348
2018-09-27T10:46:32.729Z,6728
2018-09-27T10:47:47.675Z,6656
2018-09-27T10:48:32.522Z,6980
2018-09-27T10:49:32.806Z,6756
2018-09-27T10:50:33.099Z,6224
2018-09-27T10:51:33.568Z,6268
2018-09-27T10:52:33.187Z,6452
2018-09-27T10:53:33.159Z,6432
2018-09-27T10:54:33.190Z,6256
2018-09-27T10:55:47.884Z,6048
2018-09-27T10:56:47.643Z,6180
2018-09-27T10:57:33.366Z,6056
2018-09-27T10:58:33.031Z,5140
2018-09-27T11:00:32.825Z,4044
2018-09-27T11:01:33.370Z,4464
2018-09-27T11:02:33.399Z,5720
2018-09-27T11:03:33.154Z,4924
2018-09-27T11:04:32.924Z,5364
2018-09-27T11:05:48.022Z,5512
2018-09-27T11:06:33.488Z,5472
2018-09-27T11:07:33.265Z,5360
2018-09-27T11:08:33.280Z,5212
2018-09-27T11:09:33.561Z,5140
2018-09-27T11:10:33.334Z,5084
2018-09-27T11:11:48.052Z,5120
2018-09-27T11:12:33.382Z,5180
2018-09-27T11:13:33.667Z,5040
2018-09-27T11:14:48.346Z,5100
2018-09-27T11:15:33.715Z,5072
2018-09-27T11:16:48.490Z,5028
2018-09-27T11:17:33.523Z,5048
2018-09-27T11:18:33.788Z,5076
2018-09-27T11:19:33.813Z,5056
2018-09-27T11:20:48.647Z,4996
2018-09-27T11:21:33.600Z,4992
2018-09-27T11:22:33.886Z,4960
2018-09-27T11:23:48.576Z,4916
2018-09-27T11:24:33.938Z,4904
2018-09-27T11:25:33.964Z,4892
2018-09-27T11:26:48.653Z,4936
2018-09-27T11:27:33.882Z,4916
2018-09-27T11:28:33.782Z,4888
2018-09-27T11:29:34.066Z,4884
2018-09-27T11:30:34.106Z,4880
2018-09-27T11:31:34.113Z,4856
2018-09-27T11:32:34.144Z,4852
2018-09-27T11:33:34.161Z,4848
2018-09-27T11:34:33.927Z,4840
2018-09-27T11:35:34.212Z,4848
2018-09-27T11:36:34.490Z,4860
2018-09-27T11:37:34.262Z,4828
2018-09-27T11:38:34.223Z,4864
2018-09-27T11:39:34.053Z,4868
2018-09-27T11:40:34.075Z,4884
2018-09-27T11:41:49.021Z,4896
2018-09-27T11:42:34.836Z,4896
2018-09-27T11:43:34.153Z,4900
2018-09-27T11:44:34.439Z,4940
2018-09-27T11:45:34.473Z,4940
2018-09-27T11:46:34.505Z,4952
2018-09-27T11:47:34.674Z,4968
2018-09-27T11:49:35.349Z,5008
2018-09-27T11:50:34.323Z,4360
2018-09-27T11:51:34.606Z,5076
2018-09-27T11:52:34.634Z,5040
2018-09-27T11:54:34.691Z,4824
2018-09-27T11:55:34.189Z,5020
2018-09-27T11:56:34.733Z,5136
2018-09-27T11:57:34.755Z,5216
2018-09-27T11:59:04.180Z,5240
2018-09-27T11:59:34.558Z,5324
2018-09-27T12:00:35.150Z,5476
2018-09-27T12:01:34.820Z,5440
2018-09-27T12:02:34.888Z,5424
2018-09-27T12:04:34.934Z,5340
2018-09-27T12:05:34.700Z,5388
2018-09-27T12:06:34.880Z,5460
2018-09-27T12:07:35.313Z,5492
2018-09-27T12:08:49.688Z,5564
2018-09-27T12:09:34.794Z,5508
2018-09-27T12:10:35.080Z,5180
2018-09-27T12:11:35.104Z,5240
2018-09-27T12:12:35.131Z,3844
2018-09-27T12:13:35.611Z,3356
2018-09-27T12:14:50.042Z,5328
2018-09-27T12:15:35.306Z,5348
2018-09-27T12:16:34.800Z,5348
2018-09-27T12:17:35.686Z,5396
2018-09-27T12:18:35.279Z,5424
2018-09-27T12:19:35.459Z,5452
2018-09-27T12:20:35.331Z,5420
2018-09-27T12:21:35.093Z,3668
2018-09-27T12:22:50.042Z,3376
2018-09-27T12:23:35.148Z,3400
2018-09-27T12:24:49.829Z,4608
2018-09-27T12:25:35.760Z,3808
2018-09-27T12:26:35.484Z,5504
2018-09-27T12:27:35.506Z,5572
2018-09-27T12:28:35.681Z,5756
2018-09-27T12:29:35.558Z,5080
2018-09-27T12:30:50.038Z,5972
2018-09-27T12:31:35.608Z,5864
2018-09-27T12:32:35.624Z,5952
2018-09-27T12:33:35.395Z,5980
2018-09-27T12:34:50.333Z,5980
2018-09-27T12:36:36.072Z,5868
2018-09-27T12:37:35.751Z,5784
2018-09-27T12:38:36.313Z,5692
2018-09-27T12:39:35.705Z,5652
2018-09-27T12:40:49.970Z,5544
2018-09-27T12:41:36.305Z,5664
2018-09-27T12:42:36.344Z,5752
2018-09-27T12:43:35.905Z,5592
2018-09-27T12:44:35.922Z,5672
2018-09-27T12:45:36.680Z,5664
2018-09-27T12:46:51.047Z,5444
2018-09-27T12:47:36.002Z,5536
2018-09-27T12:48:36.813Z,5596
2018-09-27T12:49:36.053Z,4108
2018-09-27T12:50:35.990Z,4208
2018-09-27T12:51:36.322Z,5572
2018-09-27T12:52:36.854Z,5528
2018-09-27T12:53:36.148Z,5048
2018-09-27T12:54:36.180Z,5512
2018-09-27T12:55:35.943Z,5408
2018-09-27T12:56:50.892Z,5380
2018-09-27T12:57:35.992Z,5448
2018-09-27T12:58:36.234Z,5464
2018-09-27T12:59:36.319Z,5440
2018-09-27T13:00:36.080Z,5352
2018-09-27T13:01:51.039Z,5200
2018-09-27T13:02:36.716Z,5288
2018-09-27T13:03:36.409Z,5384
2018-09-27T13:04:36.433Z,5304
2018-09-27T13:05:36.451Z,5328
2018-09-27T13:06:36.482Z,5332
2018-09-27T13:07:36.557Z,5360
2018-09-27T13:08:36.845Z,5372
2018-09-27T13:09:37.105Z,5380
2018-09-27T13:10:36.058Z,5380
2018-09-27T13:11:51.046Z,5376
2018-09-27T13:12:36.529Z,5400
2018-09-27T13:13:52.035Z,5384
2018-09-27T13:14:36.882Z,5396
2018-09-27T13:15:36.700Z,5392
2018-09-27T13:16:36.734Z,5388
2018-09-27T13:17:36.992Z,5352
2018-09-27T13:18:36.513Z,5304
2018-09-27T13:19:51.720Z,5328
2018-09-27T13:20:36.956Z,5296
2018-09-27T13:21:36.781Z,5276
2018-09-27T13:22:36.613Z,5292
2018-09-27T13:23:36.904Z,5332
2018-09-27T13:24:36.893Z,5352
2018-09-27T13:25:51.643Z,5312
2018-09-27T13:26:37.328Z,5348
2018-09-27T13:27:36.998Z,5376
2018-09-27T13:28:37.286Z,5388
2018-09-27T13:29:37.055Z,5380
2018-09-27T13:30:37.077Z,5364
2018-09-27T13:31:36.848Z,5340
2018-09-27T13:33:51.589Z,5360
2018-09-27T13:34:37.173Z,5364
2018-09-27T13:35:37.197Z,5324
2018-09-27T13:36:36.703Z,5296
2018-09-27T13:37:37.249Z,5280
2018-09-27T13:38:36.756Z,5300
2018-09-27T13:39:37.318Z,5336
2018-09-27T13:40:51.984Z,5312
2018-09-27T13:41:37.343Z,5296
2018-09-27T13:42:37.372Z,5268
2018-09-27T13:43:37.402Z,5276
2018-09-27T13:44:37.170Z,5272
2018-09-27T13:45:37.448Z,5284
2018-09-27T13:47:37.506Z,5292
2018-09-27T13:50:06.872Z,5348
2018-09-27T13:50:37.317Z,5364
2018-09-27T13:51:37.714Z,5312
2018-09-27T13:52:37.623Z,5296
2018-09-27T13:53:37.396Z,5296
2018-09-27T13:54:37.670Z,5288
2018-09-27T13:55:37.705Z,5264
2018-09-27T13:56:36.948Z,5288
2018-09-27T13:57:37.517Z,5316
2018-09-27T13:58:52.435Z,5332
2018-09-27T13:59:37.552Z,5356
2018-09-27T14:00:37.824Z,5344
2018-09-27T14:01:37.851Z,5336
2018-09-27T14:02:37.873Z,5300
2018-09-27T14:03:52.561Z,5292
2018-09-27T14:04:37.924Z,5288
2018-09-27T14:05:52.354Z,5244
2018-09-27T14:07:52.658Z,5260
2018-09-27T14:08:38.027Z,5256
2018-09-27T14:09:38.045Z,5272
2018-09-27T14:10:38.074Z,5264
2018-09-27T14:11:38.101Z,5244
2018-09-27T14:12:38.223Z,5248
2018-09-27T14:13:38.150Z,5224
2018-09-27T14:14:38.441Z,5228
2018-09-27T14:15:38.203Z,5240
2018-09-27T14:17:38.246Z,5216
2018-09-27T14:18:38.273Z,5244
2018-09-27T14:19:38.304Z,5248
2018-09-27T14:20:38.322Z,5236
2018-09-27T14:21:53.011Z,5196
2018-09-27T14:22:38.123Z,5240
2018-09-27T14:23:38.136Z,5292
2018-09-27T14:24:52.859Z,5308
2018-09-27T14:25:38.697Z,5276
2018-09-27T14:26:38.478Z,5260
2018-09-27T14:27:38.505Z,5236
2018-09-27T14:28:38.519Z,5200
2018-09-27T14:29:38.551Z,5180
2018-09-27T14:30:53.376Z,5168
2018-09-27T14:31:38.611Z,5176
2018-09-27T14:32:38.679Z,5184
2018-09-27T14:33:38.647Z,5192
2018-09-27T14:34:38.673Z,5168
2018-09-27T14:35:38.944Z,5164